DFOS weather

Sideradougou Airport
Sideradougou, Comoe, Burkina Faso

Public forecast

Using degrees Celsius for public forecast. Weather courtesy of forecast.io.

METAR (pilot weather report)

Closest report is Bobo Dioulasso Airport, 29.8 nm (55.3 km) N. Retrieved 2019/02/20 13:00 UTC (13 minutes ago):

DFOO 201300Z 28008KT 8000 NSC 32/17 Q1012

TAF (pilot weather forecast)

Closest forecast is Bobo Dioulasso Airport, 29.8 nm (55.3 km) N. Retrieved 2019/02/20 12:21 UTC (52 minutes ago):

TAF DFOO 201100Z 2012/2112 20008KT 8000 NSC TEMPO 2016/2024 4000 TSRA FEW026 FEW040CB